METAR Data
IDs: Format: Raw Decoded Include TAF

Data at: 2108 UTC 19 May 2019

PAFS 192101Z AUTO 07009G16KT 10SM CLR 16/02 A2969 RMK AO2 SLP074 T01610017 58015 $
PAFS 192001Z AUTO 07008KT 10SM CLR 16/03 A2970 RMK AO2 SLP077 T01560028 $
PAFS 191901Z AUTO 07009KT 10SM CLR 14/02 A2972 RMK AO2 SLP083 T01440017 $
PAFS 191801Z AUTO 08006KT 10SM CLR 12/05 A2974 RMK AO2 SLP088 T01220050 10128 20011 58004 $
PAFS 191701Z AUTO 06007KT 10SM CLR 11/03 A2975 RMK AO2 SLP093 T01060028 $
PAFS 191601Z AUTO 06004KT 10SM CLR 09/02 A2975 RMK AO2 SLP095 T00940017 $
PAFS 191501Z AUTO 08003KT 10SM CLR 07/01 A2976 RMK AO2 SLP098 T00670011 50005 $
PAFS 191401Z AUTO 09003KT 10SM CLR 04/01 A2976 RMK AO2 SLP099 T00390006 $
PAFS 191301Z AUTO 00000KT 10SM CLR 03/00 A2976 RMK AO2 SLP101 T00280000 $
PAFS 191201Z AUTO 00000KT 10SM CLR 03/00 A2975 RMK AO2 SLP098 T00280000 10150 20028 53001 $
PAFS 191101Z AUTO 00000KT 10SM CLR 06/01 A2975 RMK AO2 SLP095 T00610006 $
PAFS 191001Z AUTO 00000KT 10SM CLR 08/01 A2974 RMK AO2 SLP093 T00780006 $
PAFS 190901Z AUTO 09004KT 10SM BKN120 09/00 A2974 RMK AO2 SLP093 T00890000 400890089 51006 $
PAFS 190801Z AUTO 13003KT 10SM CLR 11/M01 A2974 RMK AO2 SLP092 T01061006 $
PAFS 190701Z AUTO 14003KT 10SM CLR 12/01 A2974 RMK AO2 SLP092 T01170011 $
PAFS 190601Z AUTO 00000KT 10SM BKN090 OVC110 15/M01 A2973 RMK AO2 SLP088 60000 T01501011 10172 20139 56005 $
PAFS 190501Z AUTO 11004KT 10SM CLR 16/M01 A2973 RMK AO2 SLP086 T01611006 $
PAFS 190401Z AUTO VRB03KT 10SM CLR 16/01 A2973 RMK AO2 SLP088 T01610006 $
PAFS 190301Z AUTO 00000KT 10SM SCT120 16/M01 A2973 RMK AO2 RAE0216 SLP090 P0000 60000 T01611006 55006 $
PAFS 190201Z AUTO 00000KT 10SM -RA FEW055 OVC075 14/03 A2974 RMK AO2 RAB0145 SLP092 P0000 T01390028 $
PAFS 190101Z AUTO 00000KT 10SM FEW075 SCT100 16/M02 A2974 RMK AO2 SLP090 T01611017 $
PAFS 190001Z AUTO 04005KT 10SM BKN070 16/M01 A2975 RMK AO2 SLP095 T01611011 10161 20094 56007 $
PAFS 182301Z AUTO 00000KT 10SM BKN075 OVC090 14/00 A2976 RMK AO2 SLP099 T01390000 $
PAFS 182201Z AUTO VRB03KT 10SM CLR 14/01 A2976 RMK AO2 SLP099 T01440006 $
PAFS 182101Z AUTO 00000KT 10SM BKN060 13/03 A2978 RMK AO2 SLP104 T01280028 58001 $
PAFS 182001Z AUTO VRB03KT 10SM CLR 12/02 A2978 RMK AO2 SLP106 T01220022 $
PAFS 181901Z AUTO VRB04KT 10SM CLR 11/03 A2979 RMK AO2 SLP108 T01060033 $
PAFS 181801Z AUTO 00000KT 10SM CLR 09/03 A2979 RMK AO2 SLP109 T00940033 10100 20006 50006 $
PAFS 181701Z AUTO 00000KT 10SM CLR 08/03 A2978 RMK AO2 SLP106 T00780033 $
PAFS 181601Z AUTO 00000KT 10SM CLR 05/02 A2979 RMK AO2 SLP108 T00500022 $
PAFS 181501Z AUTO 00000KT 10SM FEW038 03/02 A2978 RMK AO2 SLP106 T00330022 53012 $
PAFS 181401Z AUTO 11003KT 10SM CLR 01/01 A2977 RMK AO2 SLP100 T00110006 FZRANO $
PAFS 181301Z AUTO 00000KT 10SM CLR 02/01 A2975 RMK AO2 SLP097 T00170011 FZRANO $
PAFS 181201Z AUTO 00000KT 10SM OVC065 03/02 A2974 RMK AO2 SLP093 60000 T00330022 10111 20033 53016 $
PAFS 181101Z AUTO 00000KT 10SM BKN065 OVC080 05/03 A2973 RMK AO2 SLP089 T00500033 $
PAFS 181001Z AUTO 00000KT 10SM BKN090 07/03 A2971 RMK AO2 SLP083 T00720033 $